createdAt,value
2018-05-12T00:01:14.092Z,14.02
2018-05-12T00:03:41.624Z,13.95
2018-05-12T00:06:09.099Z,13.94
2018-05-12T00:08:36.619Z,13.89
2018-05-12T00:11:04.088Z,13.90
2018-05-12T00:13:31.561Z,13.87
2018-05-12T00:15:59.087Z,13.91
2018-05-12T00:18:29.930Z,13.90
2018-05-12T00:20:57.515Z,13.84
2018-05-12T00:23:24.982Z,13.76
2018-05-12T00:25:52.482Z,13.69
2018-05-12T00:28:19.966Z,13.70
2018-05-12T00:30:47.546Z,13.65
2018-05-12T00:33:15.114Z,13.61
2018-05-12T00:35:42.594Z,13.59
2018-05-12T00:38:10.054Z,13.57
2018-05-12T00:40:37.578Z,13.57
2018-05-12T00:43:05.192Z,13.47
2018-05-12T00:45:32.666Z,13.40
2018-05-12T00:48:00.170Z,13.35
2018-05-12T00:50:27.726Z,13.31
2018-05-12T00:52:55.199Z,13.28
2018-05-12T00:55:22.687Z,13.24
2018-05-12T00:57:50.179Z,13.29
2018-05-12T01:00:17.755Z,13.23
2018-05-12T01:02:45.291Z,13.18
2018-05-12T01:05:12.787Z,13.15
2018-05-12T01:07:40.257Z,13.13
2018-05-12T01:10:07.750Z,13.14
2018-05-12T01:12:35.250Z,13.14
2018-05-12T01:15:02.719Z,13.15
2018-05-12T01:17:30.266Z,13.12
2018-05-12T01:19:57.738Z,13.05
2018-05-12T01:22:25.257Z,12.99
2018-05-12T01:24:52.758Z,12.93
2018-05-12T01:27:20.303Z,12.89
2018-05-12T01:29:47.786Z,12.85
2018-05-12T01:32:15.419Z,12.80
2018-05-12T01:34:42.889Z,12.76
2018-05-12T01:37:10.379Z,12.72
2018-05-12T01:39:37.849Z,12.75
2018-05-12T01:42:05.415Z,12.80
2018-05-12T01:44:32.890Z,12.83
2018-05-12T01:47:00.470Z,12.81
2018-05-12T01:49:28.035Z,12.75
2018-05-12T01:51:55.588Z,12.71
2018-05-12T01:54:23.158Z,12.70
2018-05-12T01:56:50.642Z,12.65
2018-05-12T01:59:18.123Z,12.66
2018-05-12T02:01:45.736Z,12.72
2018-05-12T02:04:13.330Z,12.69
2018-05-12T02:06:41.913Z,12.66
2018-05-12T02:09:09.530Z,12.67
2018-05-12T02:11:37.019Z,12.73
2018-05-12T02:14:04.487Z,12.81
2018-05-12T02:16:31.979Z,12.90
2018-05-12T02:18:59.469Z,13.01
2018-05-12T02:21:27.031Z,13.02
2018-05-12T02:23:54.586Z,13.04
2018-05-12T02:26:22.077Z,13.04
2018-05-12T02:28:49.598Z,13.08
2018-05-12T02:31:17.162Z,13.09
2018-05-12T02:33:44.651Z,13.12
2018-05-12T02:36:12.111Z,13.10
2018-05-12T02:38:39.640Z,13.01
2018-05-12T02:41:07.106Z,12.90
2018-05-12T02:43:34.656Z,12.78
2018-05-12T02:46:02.217Z,12.66
2018-05-12T02:48:29.724Z,12.58
2018-05-12T02:50:57.242Z,12.47
2018-05-12T02:53:24.791Z,12.41
2018-05-12T02:55:52.250Z,12.40
2018-05-12T02:58:19.748Z,12.37
2018-05-12T03:00:47.223Z,12.38
2018-05-12T03:03:14.754Z,12.39
2018-05-12T03:05:42.214Z,12.35
2018-05-12T03:08:09.746Z,12.29
2018-05-12T03:10:37.222Z,12.27
2018-05-12T03:13:04.764Z,12.26
2018-05-12T03:15:32.317Z,12.22
2018-05-12T03:17:59.798Z,12.20
2018-05-12T03:20:27.254Z,12.19
2018-05-12T03:22:54.794Z,12.15
2018-05-12T03:25:22.399Z,12.13
2018-05-12T03:27:49.926Z,12.13
2018-05-12T03:30:17.483Z,12.16
2018-05-12T03:32:44.956Z,12.14
2018-05-12T03:35:12.448Z,12.18
2018-05-12T03:37:39.930Z,12.23
2018-05-12T03:40:07.615Z,12.26
2018-05-12T03:42:35.087Z,12.35
2018-05-12T03:45:02.634Z,12.43
2018-05-12T03:47:30.206Z,12.51
2018-05-12T03:49:57.694Z,12.60
2018-05-12T03:52:25.214Z,12.69
2018-05-12T03:54:52.698Z,12.73
2018-05-12T03:57:20.178Z,12.76
2018-05-12T03:59:47.682Z,12.74
2018-05-12T04:02:15.250Z,12.70
2018-05-12T04:08:00.360Z,12.66
2018-05-12T04:10:39.883Z,12.59
2018-05-12T04:13:07.357Z,12.60
2018-05-12T04:15:34.849Z,12.61
2018-05-12T04:18:02.355Z,12.58
2018-05-12T04:20:29.846Z,12.60
2018-05-12T04:22:57.323Z,12.62
2018-05-12T04:25:24.818Z,12.63
2018-05-12T04:27:52.291Z,12.63
2018-05-12T04:30:19.847Z,12.67
2018-05-12T04:32:47.406Z,12.70
2018-05-12T04:35:14.978Z,12.75
2018-05-12T04:37:42.457Z,12.86
2018-05-12T04:40:09.947Z,12.91
2018-05-12T04:42:37.446Z,12.99
2018-05-12T04:45:04.999Z,13.05
2018-05-12T04:47:32.498Z,13.16
2018-05-12T04:49:59.996Z,13.30
2018-05-12T04:52:27.466Z,13.44
2018-05-12T04:54:54.948Z,13.58
2018-05-12T04:57:22.490Z,13.76
2018-05-12T04:59:50.237Z,13.92
2018-05-12T05:02:17.698Z,14.13
2018-05-12T05:04:45.192Z,14.25
2018-05-12T05:07:12.662Z,14.41
2018-05-12T05:09:40.150Z,14.64
2018-05-12T05:12:07.715Z,14.73
2018-05-12T05:14:35.203Z,14.88
2018-05-12T05:17:02.763Z,14.99
2018-05-12T05:19:30.332Z,15.03
2018-05-12T05:21:57.798Z,15.07
2018-05-12T05:24:25.267Z,15.09
2018-05-12T05:26:52.799Z,15.06
2018-05-12T05:29:20.262Z,15.10
2018-05-12T05:31:47.749Z,15.17
2018-05-12T05:34:15.227Z,15.23
2018-05-12T05:36:42.724Z,15.27
2018-05-12T05:39:10.215Z,15.26
2018-05-12T05:41:37.808Z,15.24
2018-05-12T05:44:05.355Z,15.27
2018-05-12T05:46:32.870Z,15.19
2018-05-12T05:49:00.434Z,15.07
2018-05-12T05:51:27.931Z,14.98
2018-05-12T05:53:55.428Z,14.95
2018-05-12T05:56:23.007Z,14.79
2018-05-12T05:58:50.475Z,14.70
2018-05-12T06:01:17.979Z,14.65
2018-05-12T06:03:45.483Z,14.64
2018-05-12T06:06:12.979Z,14.64
2018-05-12T06:08:40.452Z,14.72
2018-05-12T06:11:07.962Z,14.86
2018-05-12T06:13:35.431Z,14.94
2018-05-12T06:16:02.980Z,14.99
2018-05-12T06:18:30.534Z,15.06
2018-05-12T06:20:58.094Z,15.18
2018-05-12T06:23:25.618Z,15.31
2018-05-12T06:25:53.100Z,15.47
2018-05-12T06:28:20.585Z,15.60
2018-05-12T06:30:48.057Z,15.75
2018-05-12T06:33:15.555Z,15.84
2018-05-12T06:35:43.098Z,15.96
2018-05-12T06:38:10.703Z,16.05
2018-05-12T06:40:38.338Z,16.23
2018-05-12T06:43:05.868Z,16.29
2018-05-12T06:45:33.349Z,16.44
2018-05-12T06:48:00.844Z,16.57
2018-05-12T06:50:28.318Z,16.72
2018-05-12T06:52:55.909Z,16.81
2018-05-12T06:55:23.318Z,16.84
2018-05-12T06:57:50.866Z,17.07
2018-05-12T07:00:18.378Z,17.25
2018-05-12T07:02:45.994Z,17.47
2018-05-12T07:05:13.563Z,17.61
2018-05-12T07:07:41.123Z,17.75
2018-05-12T07:10:08.629Z,17.94
2018-05-12T07:12:36.125Z,18.04
2018-05-12T07:15:03.617Z,18.18
2018-05-12T07:17:31.106Z,18.41
2018-05-12T07:19:58.570Z,18.47
2018-05-12T07:22:26.132Z,18.55
2018-05-12T07:24:53.643Z,18.72
2018-05-12T07:27:21.137Z,18.87
2018-05-12T07:29:48.607Z,18.98
2018-05-12T07:32:16.091Z,19.12
2018-05-12T07:34:43.559Z,19.37
2018-05-12T07:37:11.147Z,19.52
2018-05-12T07:39:38.705Z,19.60
2018-05-12T07:42:06.178Z,19.75
2018-05-12T07:44:33.727Z,19.93
2018-05-12T07:47:01.285Z,20.11
2018-05-12T07:49:28.782Z,20.23
2018-05-12T07:51:56.306Z,20.41
2018-05-12T07:54:23.799Z,20.56
2018-05-12T07:56:51.326Z,20.56
2018-05-12T07:59:18.776Z,20.73
2018-05-12T08:01:46.243Z,21.01
2018-05-12T08:04:13.739Z,21.01
2018-05-12T08:06:41.219Z,21.16
2018-05-12T08:09:08.809Z,21.37
2018-05-12T08:11:36.279Z,21.63
2018-05-12T08:14:03.771Z,21.65
2018-05-12T08:16:31.256Z,21.80
2018-05-12T08:18:58.743Z,21.77
2018-05-12T08:21:26.320Z,22.02
2018-05-12T08:23:53.879Z,22.28
2018-05-12T08:26:21.427Z,22.43
2018-05-12T08:28:48.918Z,22.33
2018-05-12T08:31:16.378Z,22.17
2018-05-12T08:33:43.863Z,22.31
2018-05-12T08:36:11.346Z,22.74
2018-05-12T08:38:38.829Z,22.84
2018-05-12T08:41:06.291Z,23.04
2018-05-12T08:43:33.790Z,23.12
2018-05-12T08:46:01.247Z,23.33
2018-05-12T08:48:28.730Z,23.40
2018-05-12T08:50:56.198Z,23.41
2018-05-12T08:53:23.658Z,23.51
2018-05-12T08:55:51.223Z,23.58
2018-05-12T08:58:18.692Z,23.78
2018-05-12T09:00:46.258Z,23.86
2018-05-12T09:03:13.722Z,23.92
2018-05-12T09:05:41.238Z,23.86
2018-05-12T09:08:08.856Z,23.81
2018-05-12T09:10:36.611Z,24.15
2018-05-12T09:13:04.139Z,24.27
2018-05-12T09:15:31.699Z,24.43
2018-05-12T09:17:59.158Z,24.63
2018-05-12T09:20:26.674Z,24.65
2018-05-12T09:22:54.170Z,24.94
2018-05-12T09:25:21.662Z,25.22
2018-05-12T09:27:49.131Z,25.60
2018-05-12T09:30:16.647Z,25.70
2018-05-12T09:32:44.211Z,26.12
2018-05-12T09:35:11.805Z,25.98
2018-05-12T09:37:39.270Z,26.36
2018-05-12T09:40:06.766Z,26.36
2018-05-12T09:42:34.311Z,26.74
2018-05-12T09:45:01.828Z,27.38
2018-05-12T09:47:29.300Z,27.82
2018-05-12T09:49:56.792Z,27.88
2018-05-12T09:52:24.269Z,28.15
2018-05-12T09:54:51.842Z,28.18
2018-05-12T09:57:19.537Z,28.66
2018-05-12T09:59:47.026Z,28.82
2018-05-12T10:02:14.487Z,29.06
2018-05-12T10:04:41.978Z,29.43
2018-05-12T10:07:09.579Z,29.68
2018-05-12T10:09:37.067Z,30.16
2018-05-12T10:12:04.570Z,30.59
2018-05-12T10:14:32.149Z,31.17
2018-05-12T10:16:59.638Z,31.13
2018-05-12T10:19:27.154Z,30.66
2018-05-12T10:21:54.690Z,30.51
2018-05-12T10:24:22.250Z,29.95
2018-05-12T10:26:49.747Z,30.49
2018-05-12T10:29:17.227Z,30.61
2018-05-12T10:31:44.756Z,30.75
2018-05-12T10:34:12.226Z,30.89
2018-05-12T10:36:39.735Z,31.34
2018-05-12T10:39:07.318Z,31.82
2018-05-12T10:41:34.896Z,31.95
2018-05-12T10:44:02.358Z,32.41
2018-05-12T10:46:29.843Z,32.58
2018-05-12T10:48:57.307Z,32.49
2018-05-12T10:51:24.798Z,32.36
2018-05-12T10:53:52.350Z,32.74
2018-05-12T10:56:19.843Z,33.79
2018-05-12T10:58:47.367Z,34.01
2018-05-12T11:01:14.968Z,34.03
2018-05-12T11:03:42.435Z,33.83
2018-05-12T11:06:09.947Z,33.81
2018-05-12T11:08:37.411Z,34.08
2018-05-12T11:11:04.962Z,34.68
2018-05-12T11:13:32.491Z,35.63
2018-05-12T11:16:00.010Z,35.04
2018-05-12T11:18:27.481Z,36.02
2018-05-12T11:20:54.964Z,35.43
2018-05-12T11:23:22.541Z,35.31
2018-05-12T11:25:50.130Z,35.63
2018-05-12T11:28:17.595Z,36.09
2018-05-12T11:30:45.138Z,36.14
2018-05-12T11:33:12.694Z,35.89
2018-05-12T11:35:40.180Z,36.03
2018-05-12T11:38:07.638Z,35.97
2018-05-12T11:40:35.166Z,35.52
2018-05-12T11:43:02.634Z,35.55
2018-05-12T11:45:30.112Z,36.26
2018-05-12T11:47:57.651Z,36.56
2018-05-12T11:50:25.114Z,37.07
2018-05-12T11:52:52.606Z,37.34
2018-05-12T11:55:20.078Z,37.64
2018-05-12T11:57:47.570Z,37.74
2018-05-12T12:00:15.031Z,37.99
2018-05-12T12:02:42.611Z,37.89
2018-05-12T12:05:10.133Z,37.60
2018-05-12T12:07:37.650Z,38.10
2018-05-12T15:59:57.360Z,35.45
2018-05-12T16:02:24.828Z,33.83
2018-05-12T16:04:52.341Z,33.36
2018-05-12T16:07:19.846Z,33.95
2018-05-12T16:09:47.348Z,34.56
2018-05-12T16:12:14.845Z,34.84
2018-05-12T16:14:42.327Z,34.14
2018-05-12T16:17:09.791Z,33.68
2018-05-12T16:19:37.287Z,33.50
2018-05-12T16:22:04.772Z,34.14
2018-05-12T16:24:32.332Z,33.68
2018-05-12T16:26:59.834Z,33.24
2018-05-12T16:29:27.323Z,32.10
2018-05-12T16:31:54.927Z,31.13
2018-05-12T16:34:22.390Z,30.75
2018-05-12T16:36:49.874Z,30.47
2018-05-12T16:39:17.370Z,30.00
2018-05-12T16:41:44.906Z,29.38
2018-05-12T16:44:12.398Z,29.02
2018-05-12T16:46:39.963Z,28.78
2018-05-12T16:49:07.417Z,28.30
2018-05-12T16:51:34.984Z,28.06
2018-05-12T16:54:02.477Z,27.97
2018-05-12T16:56:29.994Z,27.64
2018-05-12T16:58:57.477Z,27.22
2018-05-12T17:01:25.012Z,27.24
2018-05-12T17:03:52.582Z,27.16
2018-05-12T17:06:20.137Z,27.10
2018-05-12T17:08:47.690Z,27.04
2018-05-12T17:11:15.166Z,27.05
2018-05-12T17:13:42.636Z,26.91
2018-05-12T17:16:10.119Z,26.74
2018-05-12T17:18:37.623Z,26.66
2018-05-12T17:21:05.179Z,26.39
2018-05-12T17:23:32.637Z,26.23
2018-05-12T17:26:00.200Z,26.09
2018-05-12T17:28:27.764Z,25.96
2018-05-12T17:30:55.319Z,25.84
2018-05-12T17:33:22.879Z,25.69
2018-05-12T17:35:50.375Z,25.57
2018-05-12T17:38:17.844Z,25.46
2018-05-12T17:40:45.344Z,25.40
2018-05-12T17:43:12.810Z,25.26
2018-05-12T17:45:40.302Z,25.16
2018-05-12T17:48:07.788Z,25.06
2018-05-12T17:50:35.271Z,25.00
2018-05-12T17:53:02.845Z,24.96
2018-05-12T17:55:30.410Z,24.98
2018-05-12T17:57:57.926Z,24.95
2018-05-12T18:00:25.461Z,24.91
2018-05-12T18:02:52.945Z,24.81
2018-05-12T18:05:20.424Z,24.71
2018-05-12T18:07:47.954Z,24.60
2018-05-12T18:10:15.537Z,24.42
2018-05-12T18:12:43.042Z,24.31
2018-05-12T18:15:10.507Z,24.24
2018-05-12T18:17:37.987Z,24.11
2018-05-12T18:20:05.466Z,24.03
2018-05-12T18:22:32.959Z,23.87
2018-05-12T18:25:00.414Z,23.76
2018-05-12T18:27:27.939Z,23.66
2018-05-12T18:29:55.675Z,23.56
2018-05-12T18:32:23.163Z,23.45
2018-05-12T18:34:50.628Z,23.35
2018-05-12T18:37:18.118Z,23.19
2018-05-12T18:39:45.591Z,23.07
2018-05-12T18:42:13.578Z,23.00
2018-05-12T18:44:41.071Z,22.88
2018-05-12T18:47:08.646Z,22.84
2018-05-12T18:49:36.111Z,22.71
2018-05-12T18:52:03.607Z,22.58
2018-05-12T18:54:31.114Z,22.44
2018-05-12T18:56:58.634Z,22.38
2018-05-12T18:59:26.154Z,22.28
2018-05-12T19:01:53.698Z,22.23
2018-05-12T19:04:21.221Z,22.09
2018-05-12T19:06:48.742Z,22.06
2018-05-12T19:09:16.251Z,21.98
2018-05-12T19:11:43.758Z,22.02
2018-05-12T19:14:11.295Z,22.02
2018-05-12T19:16:38.793Z,22.00
2018-05-12T19:19:06.307Z,21.96
2018-05-12T19:21:33.782Z,21.91
2018-05-12T19:24:01.299Z,21.83
2018-05-12T19:26:28.790Z,21.68
2018-05-12T19:28:56.347Z,21.57
2018-05-12T19:31:23.812Z,21.49
2018-05-12T19:33:51.319Z,21.47
2018-05-12T19:36:18.823Z,21.42
2018-05-12T19:38:46.484Z,21.40
2018-05-12T19:41:14.047Z,21.39
2018-05-12T19:43:41.555Z,21.38
2018-05-12T19:46:09.071Z,21.39
2018-05-12T19:48:36.582Z,21.43
2018-05-12T19:51:07.834Z,21.46
2018-05-12T19:53:35.339Z,21.54
2018-05-12T19:56:02.838Z,21.58
2018-05-12T19:58:30.347Z,21.59
2018-05-12T20:01:01.432Z,21.55
2018-05-12T20:03:29.059Z,21.56
2018-05-12T20:05:56.565Z,21.58
2018-05-12T20:08:24.078Z,21.71
2018-05-12T20:10:53.549Z,21.72
2018-05-12T20:13:21.886Z,21.66
2018-05-12T20:15:49.440Z,21.56
2018-05-12T20:18:16.966Z,21.44
2018-05-12T20:20:44.446Z,21.30
2018-05-12T20:23:11.931Z,21.15
2018-05-12T20:25:39.517Z,21.07
2018-05-12T20:28:06.990Z,20.95
2018-05-12T20:30:34.449Z,20.79
2018-05-12T20:33:04.181Z,20.72
2018-05-12T20:35:31.679Z,20.70
2018-05-12T20:37:59.190Z,20.60
2018-05-12T20:40:26.689Z,20.58
2018-05-12T20:42:55.098Z,20.45
2018-05-12T20:45:22.705Z,20.42
2018-05-12T20:47:50.223Z,20.32
2018-05-12T20:50:17.711Z,20.29
2018-05-12T20:52:45.190Z,20.27
2018-05-12T20:55:12.678Z,20.22
2018-05-12T20:57:40.146Z,20.16
2018-05-12T21:00:11.242Z,20.06
2018-05-12T21:02:38.706Z,20.07
2018-05-12T21:05:06.270Z,19.94
2018-05-12T21:07:33.734Z,19.91
2018-05-12T21:10:03.415Z,19.84
2018-05-12T21:12:30.965Z,19.73
2018-05-12T21:14:58.465Z,19.63
2018-05-12T21:17:25.935Z,19.58
2018-05-12T21:19:53.510Z,19.51
2018-05-12T21:22:20.999Z,19.41
2018-05-12T21:24:48.489Z,19.33
2018-05-12T21:27:15.970Z,19.37
2018-05-12T21:29:43.523Z,19.50
2018-05-12T21:32:11.016Z,19.56
2018-05-12T21:34:38.532Z,19.66
2018-05-12T21:37:06.055Z,19.74
2018-05-12T21:39:33.550Z,19.80
2018-05-12T21:42:01.044Z,19.82
2018-05-12T21:44:28.534Z,19.87
2018-05-12T21:46:56.021Z,19.89
2018-05-12T21:49:23.483Z,19.90
2018-05-12T21:51:51.002Z,19.92
2018-05-12T21:54:18.467Z,19.93
2018-05-12T21:56:46.018Z,19.91
2018-05-12T21:59:13.582Z,19.95
2018-05-12T22:01:41.129Z,19.96
2018-05-12T22:04:08.698Z,19.97
2018-05-12T22:06:36.271Z,19.79
2018-05-12T22:09:03.775Z,19.35
2018-05-12T22:11:31.280Z,18.56
2018-05-12T22:13:58.755Z,17.96
2018-05-12T22:16:26.248Z,17.53
2018-05-12T22:18:53.790Z,17.11
2018-05-12T22:21:21.282Z,16.55
2018-05-12T22:23:48.747Z,16.22
2018-05-12T22:26:16.238Z,15.93
2018-05-12T22:28:43.706Z,15.69
2018-05-12T22:31:11.243Z,15.60
2018-05-12T22:33:38.719Z,15.58
2018-05-12T22:36:06.224Z,15.53
2018-05-12T22:38:33.691Z,15.50
2018-05-12T22:41:01.279Z,15.49
2018-05-12T22:43:28.751Z,15.55
2018-05-12T22:45:56.399Z,15.56
2018-05-12T22:48:23.863Z,15.51
2018-05-12T22:50:51.342Z,15.45
2018-05-12T22:53:18.827Z,15.50
2018-05-12T22:55:46.326Z,15.53
2018-05-12T22:58:13.819Z,15.45
2018-05-12T23:00:41.330Z,15.35
2018-05-12T23:03:08.825Z,15.36
2018-05-12T23:05:36.314Z,15.27
2018-05-12T23:08:03.814Z,15.26
2018-05-12T23:10:31.270Z,15.25
2018-05-12T23:12:58.852Z,15.26
2018-05-12T23:15:26.321Z,15.23
2018-05-12T23:17:53.821Z,15.23
2018-05-12T23:20:21.314Z,15.16
2018-05-12T23:22:48.979Z,15.10
2018-05-12T23:25:16.506Z,15.02
2018-05-12T23:27:44.091Z,14.91
2018-05-12T23:30:11.563Z,14.86
2018-05-12T23:32:39.111Z,14.85
2018-05-12T23:35:06.575Z,14.83
2018-05-12T23:37:34.067Z,14.87
2018-05-12T23:40:01.534Z,14.82
2018-05-12T23:42:29.072Z,14.85
2018-05-12T23:44:56.496Z,14.86
2018-05-12T23:47:24.082Z,14.88
2018-05-12T23:49:51.623Z,14.84
2018-05-12T23:52:19.132Z,14.86
2018-05-12T23:54:46.602Z,14.83
2018-05-12T23:57:14.094Z,14.75
2018-05-12T23:59:41.562Z,14.87
